TAF Text Data
IDs:
Format:
Raw Decoded Include METAR

Data at: 0248 UTC 01 Feb 2023

TAF for:KSBD (San Bernardino Intl, CA, US) issued at 2337 UTC 31 Jan 2023
Text:KSBD 312337Z 0100/0124 01014G24KT P6SM SKC
Forecast period:0000 to 0200 UTC 01 February 2023
Forecast type:FROM: standard forecast or significant change
Winds:from the N (10 degrees) at 16 MPH (14 knots; 7.2 m/s) gusting to 28 MPH (24 knots; 12.3 m/s)
Visibility:6 or more sm (10+ km)
Ceiling:at least 12,000 feet AGL
Clouds:clear skies
Text:FM010200 VRB05KT P6SM SKC
Forecast period:0200 UTC 01 February 2023 to 0000 UTC 02 February 2023
Forecast type:FROM: standard forecast or significant change
Winds:variable direction winds at 6 MPH (5 knots; 2.6 m/s)
Visibility:6 or more sm (10+ km)
Ceiling:at least 12,000 feet AGL
Clouds:clear skies